sensor_id;sensor_type;location;lat;lon;timestamp;P1;durP1;ratioP1;P2;durP2;ratioP2
14080;SDS011;7116;52.152;5.392;2023-02-15T00:01:13;38.73;;;21.43;;
14080;SDS011;7116;52.152;5.392;2023-02-15T00:03:38;33.77;;;20.27;;
14080;SDS011;7116;52.152;5.392;2023-02-15T00:06:04;29.37;;;18.43;;
14080;SDS011;7116;52.152;5.392;2023-02-15T00:08:29;33.70;;;18.73;;
14080;SDS011;7116;52.152;5.392;2023-02-15T00:11:08;28.83;;;18.47;;
14080;SDS011;7116;52.152;5.392;2023-02-15T00:13:33;29.70;;;19.55;;
14080;SDS011;7116;52.152;5.392;2023-02-15T00:16:03;32.50;;;20.13;;
14080;SDS011;7116;52.152;5.392;2023-02-15T00:18:28;31.45;;;18.40;;
14080;SDS011;7116;52.152;5.392;2023-02-15T00:20:53;30.98;;;20.00;;
14080;SDS011;7116;52.152;5.392;2023-02-15T00:23:19;35.03;;;20.20;;
14080;SDS011;7116;52.152;5.392;2023-02-15T00:25:44;31.83;;;20.23;;
14080;SDS011;7116;52.152;5.392;2023-02-15T00:28:09;34.27;;;20.50;;
14080;SDS011;7116;52.152;5.392;2023-02-15T00:30:34;33.03;;;20.07;;
14080;SDS011;7116;52.152;5.392;2023-02-15T00:32:59;34.50;;;19.77;;
14080;SDS011;7116;52.152;5.392;2023-02-15T00:35:25;31.13;;;19.50;;
14080;SDS011;7116;52.152;5.392;2023-02-15T00:37:50;31.97;;;19.67;;
14080;SDS011;7116;52.152;5.392;2023-02-15T00:40:17;31.00;;;18.73;;
14080;SDS011;7116;52.152;5.392;2023-02-15T00:42:42;29.77;;;19.03;;
14080;SDS011;7116;52.152;5.392;2023-02-15T00:45:07;30.33;;;18.87;;
14080;SDS011;7116;52.152;5.392;2023-02-15T00:47:33;29.43;;;18.93;;
14080;SDS011;7116;52.152;5.392;2023-02-15T00:49:58;27.53;;;17.13;;
14080;SDS011;7116;52.152;5.392;2023-02-15T00:52:23;31.87;;;20.40;;
14080;SDS011;7116;52.152;5.392;2023-02-15T00:54:48;32.63;;;19.60;;
14080;SDS011;7116;52.152;5.392;2023-02-15T00:57:14;32.03;;;19.90;;
14080;SDS011;7116;52.152;5.392;2023-02-15T00:59:39;36.70;;;19.93;;
14080;SDS011;7116;52.152;5.392;2023-02-15T01:02:04;31.83;;;20.53;;
14080;SDS011;7116;52.152;5.392;2023-02-15T01:04:29;32.00;;;19.37;;
14080;SDS011;7116;52.152;5.392;2023-02-15T01:06:54;31.47;;;20.00;;
14080;SDS011;7116;52.152;5.392;2023-02-15T01:09:19;34.00;;;19.40;;
14080;SDS011;7116;52.152;5.392;2023-02-15T01:11:45;31.47;;;19.23;;
14080;SDS011;7116;52.152;5.392;2023-02-15T01:14:10;34.40;;;19.03;;
14080;SDS011;7116;52.152;5.392;2023-02-15T01:16:35;30.83;;;19.17;;
14080;SDS011;7116;52.152;5.392;2023-02-15T01:19:01;31.30;;;19.45;;
14080;SDS011;7116;52.152;5.392;2023-02-15T01:21:27;32.05;;;18.90;;
14080;SDS011;7116;52.152;5.392;2023-02-15T01:23:52;30.23;;;18.70;;
14080;SDS011;7116;52.152;5.392;2023-02-15T01:26:18;32.47;;;19.40;;
14080;SDS011;7116;52.152;5.392;2023-02-15T01:28:44;29.67;;;18.23;;
14080;SDS011;7116;52.152;5.392;2023-02-15T01:31:10;32.10;;;19.53;;
14080;SDS011;7116;52.152;5.392;2023-02-15T01:33:36;31.83;;;18.38;;
14080;SDS011;7116;52.152;5.392;2023-02-15T01:36:01;33.33;;;20.63;;
14080;SDS011;7116;52.152;5.392;2023-02-15T01:38:27;32.20;;;19.05;;
14080;SDS011;7116;52.152;5.392;2023-02-15T01:40:53;26.30;;;17.87;;
14080;SDS011;7116;52.152;5.392;2023-02-15T01:43:18;30.30;;;18.17;;
14080;SDS011;7116;52.152;5.392;2023-02-15T01:45:43;28.42;;;18.48;;
14080;SDS011;7116;52.152;5.392;2023-02-15T01:50:40;31.90;;;19.00;;
14080;SDS011;7116;52.152;5.392;2023-02-15T01:53:21;29.70;;;19.15;;
14080;SDS011;7116;52.152;5.392;2023-02-15T01:55:48;36.75;;;20.08;;
14080;SDS011;7116;52.152;5.392;2023-02-15T01:58:15;30.23;;;18.77;;
14080;SDS011;7116;52.152;5.392;2023-02-15T02:00:40;31.10;;;18.47;;
14080;SDS011;7116;52.152;5.392;2023-02-15T02:03:06;34.80;;;20.37;;
14080;SDS011;7116;52.152;5.392;2023-02-15T02:05:31;32.50;;;19.58;;
14080;SDS011;7116;52.152;5.392;2023-02-15T02:07:58;35.73;;;19.40;;
14080;SDS011;7116;52.152;5.392;2023-02-15T02:10:24;33.70;;;20.85;;
14080;SDS011;7116;52.152;5.392;2023-02-15T02:12:50;30.47;;;20.20;;
14080;SDS011;7116;52.152;5.392;2023-02-15T02:15:16;31.17;;;18.50;;
14080;SDS011;7116;52.152;5.392;2023-02-15T02:17:58;31.83;;;20.17;;
14080;SDS011;7116;52.152;5.392;2023-02-15T02:36:49;36.80;;;20.27;;
14080;SDS011;7116;52.152;5.392;2023-02-15T02:42:02;34.20;;;20.33;;
14080;SDS011;7116;52.152;5.392;2023-02-15T02:44:43;34.05;;;20.35;;
14080;SDS011;7116;52.152;5.392;2023-02-15T02:49:35;31.13;;;21.03;;
14080;SDS011;7116;52.152;5.392;2023-02-15T02:52:02;35.72;;;20.23;;
14080;SDS011;7116;52.152;5.392;2023-02-15T02:54:28;30.67;;;19.90;;
14080;SDS011;7116;52.152;5.392;2023-02-15T02:56:53;31.80;;;19.38;;
14080;SDS011;7116;52.152;5.392;2023-02-15T02:59:20;37.60;;;20.50;;
14080;SDS011;7116;52.152;5.392;2023-02-15T03:01:49;32.78;;;19.95;;
14080;SDS011;7116;52.152;5.392;2023-02-15T03:04:17;31.63;;;19.20;;
14080;SDS011;7116;52.152;5.392;2023-02-15T03:06:51;30.80;;;17.75;;
14080;SDS011;7116;52.152;5.392;2023-02-15T03:12:06;33.43;;;18.93;;
14080;SDS011;7116;52.152;5.392;2023-02-15T03:14:32;31.17;;;19.20;;
14080;SDS011;7116;52.152;5.392;2023-02-15T03:16:57;30.10;;;17.97;;
14080;SDS011;7116;52.152;5.392;2023-02-15T03:19:25;32.53;;;19.48;;
14080;SDS011;7116;52.152;5.392;2023-02-15T03:21:54;30.98;;;19.45;;
14080;SDS011;7116;52.152;5.392;2023-02-15T03:24:30;32.30;;;19.57;;
14080;SDS011;7116;52.152;5.392;2023-02-15T03:26:57;33.60;;;19.10;;
14080;SDS011;7116;52.152;5.392;2023-02-15T03:29:23;29.02;;;18.83;;
14080;SDS011;7116;52.152;5.392;2023-02-15T03:31:51;32.33;;;18.00;;
14080;SDS011;7116;52.152;5.392;2023-02-15T03:34:18;30.27;;;18.55;;
14080;SDS011;7116;52.152;5.392;2023-02-15T03:36:49;28.50;;;18.47;;
14080;SDS011;7116;52.152;5.392;2023-02-15T03:41:57;30.60;;;19.70;;
14080;SDS011;7116;52.152;5.392;2023-02-15T03:44:31;33.28;;;19.10;;
14080;SDS011;7116;52.152;5.392;2023-02-15T03:47:06;35.33;;;18.13;;
14080;SDS011;7116;52.152;5.392;2023-02-15T03:49:54;30.45;;;19.27;;
14080;SDS011;7116;52.152;5.392;2023-02-15T03:52:20;30.60;;;18.88;;
14080;SDS011;7116;52.152;5.392;2023-02-15T03:54:46;34.47;;;20.10;;
14080;SDS011;7116;52.152;5.392;2023-02-15T03:57:16;27.87;;;17.33;;
14080;SDS011;7116;52.152;5.392;2023-02-15T04:00:02;28.15;;;17.63;;
14080;SDS011;7116;52.152;5.392;2023-02-15T04:02:50;35.08;;;20.58;;
14080;SDS011;7116;52.152;5.392;2023-02-15T04:05:17;33.90;;;21.45;;
14080;SDS011;7116;52.152;5.392;2023-02-15T04:07:42;38.30;;;20.83;;
14080;SDS011;7116;52.152;5.392;2023-02-15T04:10:08;37.10;;;20.30;;
14080;SDS011;7116;52.152;5.392;2023-02-15T04:12:51;30.98;;;20.25;;
14080;SDS011;7116;52.152;5.392;2023-02-15T04:15:17;32.13;;;19.57;;
14080;SDS011;7116;52.152;5.392;2023-02-15T04:18:02;32.97;;;18.53;;
14080;SDS011;7116;52.152;5.392;2023-02-15T04:20:27;29.80;;;19.67;;
14080;SDS011;7116;52.152;5.392;2023-02-15T04:23:11;29.85;;;18.15;;
14080;SDS011;7116;52.152;5.392;2023-02-15T04:25:55;29.38;;;17.98;;
14080;SDS011;7116;52.152;5.392;2023-02-15T04:28:20;29.83;;;18.97;;
14080;SDS011;7116;52.152;5.392;2023-02-15T04:30:46;37.23;;;20.80;;
14080;SDS011;7116;52.152;5.392;2023-02-15T04:33:11;38.97;;;19.33;;
14080;SDS011;7116;52.152;5.392;2023-02-15T04:35:36;35.47;;;20.77;;
14080;SDS011;7116;52.152;5.392;2023-02-15T04:38:01;32.40;;;19.47;;
14080;SDS011;7116;52.152;5.392;2023-02-15T04:40:27;29.33;;;18.97;;
14080;SDS011;7116;52.152;5.392;2023-02-15T04:42:52;33.67;;;20.00;;
14080;SDS011;7116;52.152;5.392;2023-02-15T04:45:17;32.63;;;19.53;;
14080;SDS011;7116;52.152;5.392;2023-02-15T04:47:42;36.00;;;20.50;;
14080;SDS011;7116;52.152;5.392;2023-02-15T04:50:08;30.30;;;19.88;;
14080;SDS011;7116;52.152;5.392;2023-02-15T04:52:33;32.15;;;17.85;;
14080;SDS011;7116;52.152;5.392;2023-02-15T04:54:58;29.33;;;17.13;;
14080;SDS011;7116;52.152;5.392;2023-02-15T04:57:23;28.70;;;18.43;;
14080;SDS011;7116;52.152;5.392;2023-02-15T04:59:49;29.67;;;18.33;;
14080;SDS011;7116;52.152;5.392;2023-02-15T05:02:14;35.60;;;18.03;;
14080;SDS011;7116;52.152;5.392;2023-02-15T05:04:39;28.03;;;17.37;;
14080;SDS011;7116;52.152;5.392;2023-02-15T05:07:04;31.67;;;19.63;;
14080;SDS011;7116;52.152;5.392;2023-02-15T05:09:30;27.47;;;16.30;;
14080;SDS011;7116;52.152;5.392;2023-02-15T05:11:55;30.57;;;18.70;;
14080;SDS011;7116;52.152;5.392;2023-02-15T05:14:20;30.83;;;17.80;;
14080;SDS011;7116;52.152;5.392;2023-02-15T05:16:45;28.50;;;17.63;;
14080;SDS011;7116;52.152;5.392;2023-02-15T05:19:11;30.03;;;17.87;;
14080;SDS011;7116;52.152;5.392;2023-02-15T05:21:36;29.27;;;17.60;;
14080;SDS011;7116;52.152;5.392;2023-02-15T05:24:01;32.50;;;19.57;;
14080;SDS011;7116;52.152;5.392;2023-02-15T05:26:46;32.58;;;18.65;;
14080;SDS011;7116;52.152;5.392;2023-02-15T05:29:35;29.60;;;17.95;;
14080;SDS011;7116;52.152;5.392;2023-02-15T05:32:00;26.90;;;17.50;;
14080;SDS011;7116;52.152;5.392;2023-02-15T05:34:25;25.47;;;15.97;;
14080;SDS011;7116;52.152;5.392;2023-02-15T05:36:50;28.73;;;17.50;;
14080;SDS011;7116;52.152;5.392;2023-02-15T05:39:16;27.73;;;17.10;;
14080;SDS011;7116;52.152;5.392;2023-02-15T05:41:41;27.80;;;17.53;;
14080;SDS011;7116;52.152;5.392;2023-02-15T05:44:06;31.03;;;17.03;;
14080;SDS011;7116;52.152;5.392;2023-02-15T05:46:31;26.70;;;16.37;;
14080;SDS011;7116;52.152;5.392;2023-02-15T05:48:56;28.60;;;17.30;;
14080;SDS011;7116;52.152;5.392;2023-02-15T05:51:21;25.97;;;16.87;;
14080;SDS011;7116;52.152;5.392;2023-02-15T05:53:47;30.93;;;16.87;;
14080;SDS011;7116;52.152;5.392;2023-02-15T05:56:12;27.60;;;17.47;;
14080;SDS011;7116;52.152;5.392;2023-02-15T05:58:38;27.20;;;16.13;;
14080;SDS011;7116;52.152;5.392;2023-02-15T06:01:08;28.27;;;15.85;;
14080;SDS011;7116;52.152;5.392;2023-02-15T06:03:34;29.13;;;17.50;;
14080;SDS011;7116;52.152;5.392;2023-02-15T06:05:59;28.00;;;17.52;;
14080;SDS011;7116;52.152;5.392;2023-02-15T06:08:24;31.13;;;16.97;;
14080;SDS011;7116;52.152;5.392;2023-02-15T06:10:49;26.53;;;16.83;;
14080;SDS011;7116;52.152;5.392;2023-02-15T06:13:14;28.20;;;16.13;;
14080;SDS011;7116;52.152;5.392;2023-02-15T06:15:39;26.77;;;16.50;;
14080;SDS011;7116;52.152;5.392;2023-02-15T06:18:05;28.37;;;14.87;;
14080;SDS011;7116;52.152;5.392;2023-02-15T06:20:30;24.83;;;15.63;;
14080;SDS011;7116;52.152;5.392;2023-02-15T06:22:55;22.02;;;14.63;;
14080;SDS011;7116;52.152;5.392;2023-02-15T06:25:20;22.10;;;14.23;;
14080;SDS011;7116;52.152;5.392;2023-02-15T06:27:45;25.98;;;15.20;;
14080;SDS011;7116;52.152;5.392;2023-02-15T06:30:11;22.10;;;13.93;;
14080;SDS011;7116;52.152;5.392;2023-02-15T06:32:36;29.40;;;16.17;;
14080;SDS011;7116;52.152;5.392;2023-02-15T06:35:01;22.77;;;15.97;;
14080;SDS011;7116;52.152;5.392;2023-02-15T06:37:27;29.37;;;16.30;;
14080;SDS011;7116;52.152;5.392;2023-02-15T06:39:52;23.80;;;14.80;;
14080;SDS011;7116;52.152;5.392;2023-02-15T06:42:17;24.57;;;15.47;;
14080;SDS011;7116;52.152;5.392;2023-02-15T06:44:43;26.67;;;15.00;;
14080;SDS011;7116;52.152;5.392;2023-02-15T06:47:08;25.13;;;15.05;;
14080;SDS011;7116;52.152;5.392;2023-02-15T06:49:33;24.67;;;15.50;;
14080;SDS011;7116;52.152;5.392;2023-02-15T06:51:59;24.30;;;15.90;;
14080;SDS011;7116;52.152;5.392;2023-02-15T06:54:24;27.20;;;16.33;;
14080;SDS011;7116;52.152;5.392;2023-02-15T06:56:49;28.83;;;15.93;;
14080;SDS011;7116;52.152;5.392;2023-02-15T06:59:14;31.33;;;16.33;;
14080;SDS011;7116;52.152;5.392;2023-02-15T07:01:39;30.13;;;14.60;;
14080;SDS011;7116;52.152;5.392;2023-02-15T07:04:05;26.97;;;15.80;;
14080;SDS011;7116;52.152;5.392;2023-02-15T07:06:31;24.90;;;15.90;;
14080;SDS011;7116;52.152;5.392;2023-02-15T07:08:56;26.17;;;15.90;;
14080;SDS011;7116;52.152;5.392;2023-02-15T07:11:21;26.17;;;14.43;;
14080;SDS011;7116;52.152;5.392;2023-02-15T07:14:05;22.50;;;14.95;;
14080;SDS011;7116;52.152;5.392;2023-02-15T07:16:30;26.57;;;15.07;;
14080;SDS011;7116;52.152;5.392;2023-02-15T07:18:55;23.93;;;15.00;;
14080;SDS011;7116;52.152;5.392;2023-02-15T07:21:21;26.70;;;15.30;;
14080;SDS011;7116;52.152;5.392;2023-02-15T07:23:46;31.83;;;15.27;;
14080;SDS011;7116;52.152;5.392;2023-02-15T07:26:11;25.07;;;15.83;;
14080;SDS011;7116;52.152;5.392;2023-02-15T07:28:36;21.53;;;14.87;;
14080;SDS011;7116;52.152;5.392;2023-02-15T07:31:02;26.13;;;15.60;;
14080;SDS011;7116;52.152;5.392;2023-02-15T07:33:29;29.10;;;15.35;;
14080;SDS011;7116;52.152;5.392;2023-02-15T07:35:58;29.05;;;16.65;;
14080;SDS011;7116;52.152;5.392;2023-02-15T07:38:24;26.35;;;14.98;;
14080;SDS011;7116;52.152;5.392;2023-02-15T07:40:50;25.85;;;14.27;;
14080;SDS011;7116;52.152;5.392;2023-02-15T07:43:15;32.07;;;15.90;;
14080;SDS011;7116;52.152;5.392;2023-02-15T07:45:40;26.65;;;14.82;;
14080;SDS011;7116;52.152;5.392;2023-02-15T07:48:05;28.63;;;16.47;;
14080;SDS011;7116;52.152;5.392;2023-02-15T07:50:32;22.92;;;14.60;;
14080;SDS011;7116;52.152;5.392;2023-02-15T07:52:57;30.07;;;20.67;;
14080;SDS011;7116;52.152;5.392;2023-02-15T07:55:23;26.67;;;16.17;;
14080;SDS011;7116;52.152;5.392;2023-02-15T07:57:50;27.73;;;17.88;;
14080;SDS011;7116;52.152;5.392;2023-02-15T08:00:17;27.45;;;16.30;;
14080;SDS011;7116;52.152;5.392;2023-02-15T08:02:47;26.80;;;16.13;;
14080;SDS011;7116;52.152;5.392;2023-02-15T08:05:12;25.20;;;15.07;;
14080;SDS011;7116;52.152;5.392;2023-02-15T08:07:38;26.70;;;15.83;;
14080;SDS011;7116;52.152;5.392;2023-02-15T08:10:03;26.97;;;15.00;;
14080;SDS011;7116;52.152;5.392;2023-02-15T08:12:31;26.20;;;16.15;;
14080;SDS011;7116;52.152;5.392;2023-02-15T08:14:56;27.90;;;16.97;;
14080;SDS011;7116;52.152;5.392;2023-02-15T08:17:21;32.80;;;16.73;;
14080;SDS011;7116;52.152;5.392;2023-02-15T08:19:46;31.13;;;16.20;;
14080;SDS011;7116;52.152;5.392;2023-02-15T08:22:13;27.95;;;16.27;;
14080;SDS011;7116;52.152;5.392;2023-02-15T08:24:39;27.75;;;16.67;;
14080;SDS011;7116;52.152;5.392;2023-02-15T08:27:05;25.43;;;14.87;;
14080;SDS011;7116;52.152;5.392;2023-02-15T08:29:30;26.88;;;15.85;;
14080;SDS011;7116;52.152;5.392;2023-02-15T08:31:58;27.70;;;16.80;;
14080;SDS011;7116;52.152;5.392;2023-02-15T08:34:24;27.52;;;16.02;;
14080;SDS011;7116;52.152;5.392;2023-02-15T08:36:49;25.85;;;17.05;;
14080;SDS011;7116;52.152;5.392;2023-02-15T08:39:14;26.73;;;17.20;;
14080;SDS011;7116;52.152;5.392;2023-02-15T08:41:44;27.07;;;15.63;;
14080;SDS011;7116;52.152;5.392;2023-02-15T08:44:09;31.65;;;16.15;;
14080;SDS011;7116;52.152;5.392;2023-02-15T08:46:36;26.67;;;17.58;;
14080;SDS011;7116;52.152;5.392;2023-02-15T08:49:02;25.20;;;15.93;;
14080;SDS011;7116;52.152;5.392;2023-02-15T08:51:29;29.37;;;17.30;;
14080;SDS011;7116;52.152;5.392;2023-02-15T08:53:56;24.75;;;16.90;;
14080;SDS011;7116;52.152;5.392;2023-02-15T08:56:23;26.05;;;16.10;;
14080;SDS011;7116;52.152;5.392;2023-02-15T08:58:48;26.42;;;16.08;;
14080;SDS011;7116;52.152;5.392;2023-02-15T09:01:14;24.40;;;16.63;;
14080;SDS011;7116;52.152;5.392;2023-02-15T09:03:42;24.70;;;15.73;;
14080;SDS011;7116;52.152;5.392;2023-02-15T09:06:08;27.37;;;17.30;;
14080;SDS011;7116;52.152;5.392;2023-02-15T09:08:33;28.80;;;18.63;;
14080;SDS011;7116;52.152;5.392;2023-02-15T09:13:54;29.38;;;18.05;;
14080;SDS011;7116;52.152;5.392;2023-02-15T09:16:20;28.63;;;17.87;;
14080;SDS011;7116;52.152;5.392;2023-02-15T09:18:46;29.15;;;19.77;;
14080;SDS011;7116;52.152;5.392;2023-02-15T09:21:12;37.95;;;25.15;;
14080;SDS011;7116;52.152;5.392;2023-02-15T09:23:41;31.83;;;20.52;;
14080;SDS011;7116;52.152;5.392;2023-02-15T09:26:08;29.03;;;18.00;;
14080;SDS011;7116;52.152;5.392;2023-02-15T09:28:33;29.90;;;18.42;;
14080;SDS011;7116;52.152;5.392;2023-02-15T09:31:09;28.17;;;17.83;;
14080;SDS011;7116;52.152;5.392;2023-02-15T09:33:35;28.27;;;17.88;;
14080;SDS011;7116;52.152;5.392;2023-02-15T09:36:01;30.77;;;18.80;;
14080;SDS011;7116;52.152;5.392;2023-02-15T09:38:26;28.38;;;18.55;;
14080;SDS011;7116;52.152;5.392;2023-02-15T09:41:02;30.13;;;19.00;;
14080;SDS011;7116;52.152;5.392;2023-02-15T09:43:35;28.27;;;19.55;;
14080;SDS011;7116;52.152;5.392;2023-02-15T09:46:10;31.80;;;19.40;;
14080;SDS011;7116;52.152;5.392;2023-02-15T09:48:38;34.78;;;20.45;;
14080;SDS011;7116;52.152;5.392;2023-02-15T09:51:08;30.38;;;20.60;;
14080;SDS011;7116;52.152;5.392;2023-02-15T09:56:06;27.93;;;18.30;;
14080;SDS011;7116;52.152;5.392;2023-02-15T10:11:42;27.42;;;17.48;;
14080;SDS011;7116;52.152;5.392;2023-02-15T10:27:07;27.65;;;18.67;;
14080;SDS011;7116;52.152;5.392;2023-02-15T10:29:37;27.35;;;17.95;;
14080;SDS011;7116;52.152;5.392;2023-02-15T10:32:10;25.00;;;16.30;;
14080;SDS011;7116;52.152;5.392;2023-02-15T10:34:39;28.90;;;17.95;;
14080;SDS011;7116;52.152;5.392;2023-02-15T10:37:16;32.00;;;20.23;;
14080;SDS011;7116;52.152;5.392;2023-02-15T10:40:48;27.98;;;17.98;;
14080;SDS011;7116;52.152;5.392;2023-02-15T10:53:10;29.40;;;19.00;;
14080;SDS011;7116;52.152;5.392;2023-02-15T11:07:58;29.45;;;19.20;;
14080;SDS011;7116;52.152;5.392;2023-02-15T11:13:29;33.05;;;17.88;;
14080;SDS011;7116;52.152;5.392;2023-02-15T11:16:05;28.58;;;17.90;;
14080;SDS011;7116;52.152;5.392;2023-02-15T11:18:36;30.37;;;17.70;;
14080;SDS011;7116;52.152;5.392;2023-02-15T11:21:13;27.35;;;17.58;;
14080;SDS011;7116;52.152;5.392;2023-02-15T11:23:43;31.85;;;20.00;;
14080;SDS011;7116;52.152;5.392;2023-02-15T11:26:12;29.15;;;17.92;;
14080;SDS011;7116;52.152;5.392;2023-02-15T11:28:41;36.58;;;20.63;;
14080;SDS011;7116;52.152;5.392;2023-02-15T11:31:12;29.80;;;19.13;;
14080;SDS011;7116;52.152;5.392;2023-02-15T11:33:38;27.60;;;18.00;;
14080;SDS011;7116;52.152;5.392;2023-02-15T11:36:09;37.78;;;18.90;;
14080;SDS011;7116;52.152;5.392;2023-02-15T11:38:36;32.72;;;19.83;;
14080;SDS011;7116;52.152;5.392;2023-02-15T11:41:02;34.47;;;20.13;;
14080;SDS011;7116;52.152;5.392;2023-02-15T11:46:04;31.27;;;19.25;;
14080;SDS011;7116;52.152;5.392;2023-02-15T11:48:29;32.57;;;19.73;;
14080;SDS011;7116;52.152;5.392;2023-02-15T11:50:56;32.17;;;19.30;;
14080;SDS011;7116;52.152;5.392;2023-02-15T11:53:21;36.58;;;19.75;;
14080;SDS011;7116;52.152;5.392;2023-02-15T11:55:50;32.47;;;20.57;;
14080;SDS011;7116;52.152;5.392;2023-02-15T12:01:20;31.65;;;19.75;;
14080;SDS011;7116;52.152;5.392;2023-02-15T12:03:51;33.28;;;19.63;;
14080;SDS011;7116;52.152;5.392;2023-02-15T12:06:28;32.92;;;19.67;;
14080;SDS011;7116;52.152;5.392;2023-02-15T12:08:55;34.13;;;18.43;;
14080;SDS011;7116;52.152;5.392;2023-02-15T12:11:27;35.47;;;21.27;;
14080;SDS011;7116;52.152;5.392;2023-02-15T12:13:59;31.98;;;19.30;;
14080;SDS011;7116;52.152;5.392;2023-02-15T12:16:25;34.90;;;20.50;;
14080;SDS011;7116;52.152;5.392;2023-02-15T12:18:52;34.38;;;19.17;;
14080;SDS011;7116;52.152;5.392;2023-02-15T12:21:30;32.00;;;18.97;;
14080;SDS011;7116;52.152;5.392;2023-02-15T12:23:58;33.22;;;21.25;;
14080;SDS011;7116;52.152;5.392;2023-02-15T12:26:29;30.67;;;19.55;;
14080;SDS011;7116;52.152;5.392;2023-02-15T12:28:55;35.58;;;21.38;;
14080;SDS011;7116;52.152;5.392;2023-02-15T12:31:27;31.25;;;19.55;;
14080;SDS011;7116;52.152;5.392;2023-02-15T12:33:56;30.20;;;18.87;;
14080;SDS011;7116;52.152;5.392;2023-02-15T12:36:29;32.85;;;20.60;;
14080;SDS011;7116;52.152;5.392;2023-02-15T12:39:15;35.75;;;21.83;;
14080;SDS011;7116;52.152;5.392;2023-02-15T12:41:46;32.78;;;20.90;;
14080;SDS011;7116;52.152;5.392;2023-02-15T12:44:19;35.83;;;21.15;;
14080;SDS011;7116;52.152;5.392;2023-02-15T12:49:32;32.10;;;19.25;;
14080;SDS011;7116;52.152;5.392;2023-02-15T12:52:02;31.88;;;20.65;;
14080;SDS011;7116;52.152;5.392;2023-02-15T12:54:40;29.02;;;18.40;;
14080;SDS011;7116;52.152;5.392;2023-02-15T12:59:50;30.83;;;18.60;;
14080;SDS011;7116;52.152;5.392;2023-02-15T13:02:21;30.75;;;19.83;;
14080;SDS011;7116;52.152;5.392;2023-02-15T13:04:47;34.97;;;20.90;;
14080;SDS011;7116;52.152;5.392;2023-02-15T13:07:13;32.75;;;22.08;;
14080;SDS011;7116;52.152;5.392;2023-02-15T13:09:39;32.92;;;21.13;;
14080;SDS011;7116;52.152;5.392;2023-02-15T13:12:24;32.00;;;19.83;;
14080;SDS011;7116;52.152;5.392;2023-02-15T13:14:51;31.83;;;19.17;;
14080;SDS011;7116;52.152;5.392;2023-02-15T13:17:19;33.27;;;21.20;;
14080;SDS011;7116;52.152;5.392;2023-02-15T13:19:46;33.03;;;20.95;;
14080;SDS011;7116;52.152;5.392;2023-02-15T13:22:14;33.85;;;22.88;;
14080;SDS011;7116;52.152;5.392;2023-02-15T13:24:41;34.72;;;21.15;;
14080;SDS011;7116;52.152;5.392;2023-02-15T13:27:10;36.03;;;22.15;;
14080;SDS011;7116;52.152;5.392;2023-02-15T13:29:37;33.40;;;22.60;;
14080;SDS011;7116;52.152;5.392;2023-02-15T13:32:50;32.60;;;21.58;;
14080;SDS011;7116;52.152;5.392;2023-02-15T13:34:49;35.30;;;20.38;;
14080;SDS011;7116;52.152;5.392;2023-02-15T13:37:17;33.30;;;20.70;;
14080;SDS011;7116;52.152;5.392;2023-02-15T13:44:56;37.80;;;19.75;;
14080;SDS011;7116;52.152;5.392;2023-02-15T13:47:44;36.60;;;19.87;;
14080;SDS011;7116;52.152;5.392;2023-02-15T13:52:42;36.67;;;21.65;;
14080;SDS011;7116;52.152;5.392;2023-02-15T13:57:58;35.55;;;21.90;;
14080;SDS011;7116;52.152;5.392;2023-02-15T14:08:14;38.05;;;20.92;;
14080;SDS011;7116;52.152;5.392;2023-02-15T14:26:13;42.55;;;22.75;;
14080;SDS011;7116;52.152;5.392;2023-02-15T14:28:49;37.53;;;21.88;;
14080;SDS011;7116;52.152;5.392;2023-02-15T14:31:16;35.20;;;22.40;;
14080;SDS011;7116;52.152;5.392;2023-02-15T14:33:55;39.85;;;23.33;;
14080;SDS011;7116;52.152;5.392;2023-02-15T14:36:20;34.17;;;19.17;;
14080;SDS011;7116;52.152;5.392;2023-02-15T14:41:43;42.03;;;23.17;;
14080;SDS011;7116;52.152;5.392;2023-02-15T14:49:32;36.60;;;22.60;;
14080;SDS011;7116;52.152;5.392;2023-02-15T14:52:03;39.53;;;21.80;;
14080;SDS011;7116;52.152;5.392;2023-02-15T14:59:23;36.33;;;22.43;;
14080;SDS011;7116;52.152;5.392;2023-02-15T15:01:52;39.30;;;22.13;;
14080;SDS011;7116;52.152;5.392;2023-02-15T15:04:27;44.88;;;24.92;;
14080;SDS011;7116;52.152;5.392;2023-02-15T15:09:29;37.65;;;22.27;;
14080;SDS011;7116;52.152;5.392;2023-02-15T15:12:12;43.05;;;22.75;;
14080;SDS011;7116;52.152;5.392;2023-02-15T15:14:38;40.27;;;22.17;;
14080;SDS011;7116;52.152;5.392;2023-02-15T15:17:05;42.92;;;23.50;;
14080;SDS011;7116;52.152;5.392;2023-02-15T15:22:17;41.95;;;23.48;;
14080;SDS011;7116;52.152;5.392;2023-02-15T15:29:51;37.27;;;21.80;;
14080;SDS011;7116;52.152;5.392;2023-02-15T15:32:17;40.00;;;21.47;;
14080;SDS011;7116;52.152;5.392;2023-02-15T15:34:51;40.53;;;22.48;;
14080;SDS011;7116;52.152;5.392;2023-02-15T15:37:40;42.25;;;23.80;;
14080;SDS011;7116;52.152;5.392;2023-02-15T15:40:15;41.28;;;25.38;;
14080;SDS011;7116;52.152;5.392;2023-02-15T15:50:47;39.93;;;24.03;;
14080;SDS011;7116;52.152;5.392;2023-02-15T15:53:18;43.00;;;23.23;;
14080;SDS011;7116;52.152;5.392;2023-02-15T15:55:45;46.03;;;24.77;;
14080;SDS011;7116;52.152;5.392;2023-02-15T15:58:12;39.60;;;22.93;;
14080;SDS011;7116;52.152;5.392;2023-02-15T16:00:44;40.17;;;21.58;;
14080;SDS011;7116;52.152;5.392;2023-02-15T16:03:15;42.10;;;22.45;;
14080;SDS011;7116;52.152;5.392;2023-02-15T16:05:41;36.90;;;22.27;;
14080;SDS011;7116;52.152;5.392;2023-02-15T16:08:06;42.27;;;23.13;;
14080;SDS011;7116;52.152;5.392;2023-02-15T16:10:31;35.73;;;21.67;;
14080;SDS011;7116;52.152;5.392;2023-02-15T16:12:58;40.03;;;21.95;;
14080;SDS011;7116;52.152;5.392;2023-02-15T16:15:25;38.83;;;21.80;;
14080;SDS011;7116;52.152;5.392;2023-02-15T16:17:56;36.30;;;22.10;;
14080;SDS011;7116;52.152;5.392;2023-02-15T16:20:31;39.00;;;20.85;;
14080;SDS011;7116;52.152;5.392;2023-02-15T16:28:11;38.08;;;22.35;;
14080;SDS011;7116;52.152;5.392;2023-02-15T16:30:37;39.90;;;22.67;;
14080;SDS011;7116;52.152;5.392;2023-02-15T16:35:33;39.92;;;22.95;;
14080;SDS011;7116;52.152;5.392;2023-02-15T16:37:58;42.75;;;23.73;;
14080;SDS011;7116;52.152;5.392;2023-02-15T16:42:52;37.80;;;22.63;;
14080;SDS011;7116;52.152;5.392;2023-02-15T16:45:19;41.27;;;22.37;;
14080;SDS011;7116;52.152;5.392;2023-02-15T16:47:46;42.20;;;21.70;;
14080;SDS011;7116;52.152;5.392;2023-02-15T16:50:20;38.03;;;22.77;;
14080;SDS011;7116;52.152;5.392;2023-02-15T16:52:45;35.90;;;22.13;;
14080;SDS011;7116;52.152;5.392;2023-02-15T16:55:19;45.93;;;25.77;;
14080;SDS011;7116;52.152;5.392;2023-02-15T16:57:45;44.17;;;24.65;;
14080;SDS011;7116;52.152;5.392;2023-02-15T17:00:21;43.47;;;23.03;;
14080;SDS011;7116;52.152;5.392;2023-02-15T17:03:23;37.67;;;22.83;;
14080;SDS011;7116;52.152;5.392;2023-02-15T17:11:02;43.03;;;22.70;;
14080;SDS011;7116;52.152;5.392;2023-02-15T17:13:27;48.55;;;25.25;;
14080;SDS011;7116;52.152;5.392;2023-02-15T17:18:24;38.53;;;22.58;;
14080;SDS011;7116;52.152;5.392;2023-02-15T17:20:51;37.35;;;22.05;;
14080;SDS011;7116;52.152;5.392;2023-02-15T17:23:39;40.90;;;22.67;;
14080;SDS011;7116;52.152;5.392;2023-02-15T17:26:12;41.03;;;22.40;;
14080;SDS011;7116;52.152;5.392;2023-02-15T17:28:44;41.05;;;21.95;;
14080;SDS011;7116;52.152;5.392;2023-02-15T17:31:12;38.90;;;22.38;;
14080;SDS011;7116;52.152;5.392;2023-02-15T17:33:38;41.20;;;23.15;;
14080;SDS011;7116;52.152;5.392;2023-02-15T17:38:34;38.75;;;21.90;;
14080;SDS011;7116;52.152;5.392;2023-02-15T17:40:59;43.50;;;23.90;;
14080;SDS011;7116;52.152;5.392;2023-02-15T17:43:24;40.77;;;23.17;;